Time,TemperatureF,DewpointF,PressureIn,WindDirection,WindDirectionDegrees,WindSpeedMPH,WindSpeedGustMPH,Humidity,HourlyPrecipIn,Conditions,Clouds,dailyrainin,SoftwareType,DateUTC
2013-06-08 00:01:00,74.7,57.4,29.91,SSW,212,0.0,0.0,55,0.00,,---,0.00,VWS V14.01,2013-06-08 04:01:00,
2013-06-08 00:02:00,74.7,57.4,29.91,SSW,212,0.0,0.0,55,0.00,,---,0.00,VWS V14.01,2013-06-08 04:02:00,
2013-06-08 00:07:00,74.7,58.4,29.91,South,185,3.6,3.6,57,0.00,,---,0.00,VWS V14.01,2013-06-08 04:07:00,
2013-06-08 00:12:00,75.0,59.7,29.91,South,187,0.0,0.0,59,0.00,,---,0.00,VWS V14.01,2013-06-08 04:12:00,
2013-06-08 00:17:00,75.4,60.1,29.88,South,183,0.0,0.0,59,0.00,,---,0.00,VWS V14.01,2013-06-08 04:17:00,
2013-06-08 00:22:00,75.4,60.1,29.88,South,183,0.0,2.7,59,0.00,,---,0.00,VWS V14.01,2013-06-08 04:22:00,
2013-06-08 00:27:00,75.6,60.2,29.88,South,181,2.7,2.7,59,0.00,,---,0.00,VWS V14.01,2013-06-08 04:27:00,
2013-06-08 00:32:00,75.7,61.3,29.91,WSW,257,4.0,4.0,61,0.00,,---,0.00,VWS V14.01,2013-06-08 04:32:00,
2013-06-08 00:37:00,75.7,61.8,29.91,WSW,254,0.0,2.2,62,0.00,,---,0.00,VWS V14.01,2013-06-08 04:37:00,
2013-06-08 00:42:00,75.7,61.3,29.91,South,172,0.0,2.7,61,0.00,,---,0.00,VWS V14.01,2013-06-08 04:42:00,
2013-06-08 00:47:00,75.6,61.2,29.91,South,172,0.0,0.0,61,0.00,,---,0.00,VWS V14.01,2013-06-08 04:47:00,
2013-06-08 00:52:00,75.6,61.6,29.91,SW,217,0.0,0.0,62,0.00,,---,0.00,VWS V14.01,2013-06-08 04:52:00,
2013-06-08 00:57:00,75.4,61.0,29.91,SW,217,0.0,0.0,61,0.00,,---,0.00,VWS V14.01,2013-06-08 04:57:00,
2013-06-08 01:02:00,75.2,60.8,29.91,SW,217,0.0,0.0,61,0.00,,---,0.00,VWS V14.01,2013-06-08 05:02:00,
2013-06-08 01:07:00,75.2,60.8,29.91,SW,217,0.0,0.0,61,0.00,,---,0.00,VWS V14.01,2013-06-08 05:07:00,
2013-06-08 01:12:00,75.0,60.7,29.91,SW,217,0.0,0.0,61,0.00,,---,0.00,VWS V14.01,2013-06-08 05:12:00,
2013-06-08 01:17:00,74.8,60.5,29.91,SW,217,0.0,0.0,61,0.00,,---,0.00,VWS V14.01,2013-06-08 05:17:00,
2013-06-08 01:22:00,74.8,60.5,29.91,South,170,0.0,0.0,61,0.00,,---,0.00,VWS V14.01,2013-06-08 05:22:00,
2013-06-08 01:27:00,74.8,60.5,29.91,South,190,2.2,2.2,61,0.00,,---,0.00,VWS V14.01,2013-06-08 05:27:00,
2013-06-08 01:32:00,74.7,60.3,29.91,South,190,0.0,0.0,61,0.00,,---,0.00,VWS V14.01,2013-06-08 05:32:00,
2013-06-08 01:37:00,74.7,60.3,29.91,South,190,0.0,0.0,61,0.00,,---,0.00,VWS V14.01,2013-06-08 05:37:00,
2013-06-08 01:42:00,74.5,60.6,29.91,South,189,0.0,0.0,62,0.00,,---,0.00,VWS V14.01,2013-06-08 05:42:00,
2013-06-08 01:47:00,74.3,60.5,29.91,South,190,0.0,0.0,62,0.00,,---,0.00,VWS V14.01,2013-06-08 05:47:00,
2013-06-08 01:52:00,74.3,60.9,29.91,South,190,0.0,0.0,63,0.00,,---,0.00,VWS V14.01,2013-06-08 05:52:00,
2013-06-08 01:57:00,74.1,60.7,29.91,South,190,0.0,0.0,63,0.00,,---,0.00,VWS V14.01,2013-06-08 05:57:00,
2013-06-08 02:02:00,73.9,61.0,29.91,South,189,0.0,0.0,64,0.00,,---,0.00,VWS V14.01,2013-06-08 06:02:00,
2013-06-08 02:07:00,73.9,61.0,29.91,South,190,0.0,0.0,64,0.00,,---,0.00,VWS V14.01,2013-06-08 06:07:00,
2013-06-08 02:12:00,73.9,61.4,29.91,South,189,0.0,0.0,65,0.00,,---,0.00,VWS V14.01,2013-06-08 06:12:00,
2013-06-08 02:17:00,73.9,61.4,29.91,SSW,209,0.0,0.0,65,0.00,,---,0.00,VWS V14.01,2013-06-08 06:17:00,
2013-06-08 02:22:00,74.1,62.0,29.91,SSW,197,0.0,0.0,66,0.00,,---,0.00,VWS V14.01,2013-06-08 06:22:00,
2013-06-08 02:27:00,74.1,62.0,29.91,SSW,198,0.0,0.0,66,0.00,,---,0.00,VWS V14.01,2013-06-08 06:27:00,
2013-06-08 02:32:00,74.1,62.0,29.91,South,171,0.0,2.2,66,0.00,,---,0.00,VWS V14.01,2013-06-08 06:32:00,
2013-06-08 02:37:00,74.1,62.5,29.91,SSE,166,0.0,0.0,67,0.00,,---,0.00,VWS V14.01,2013-06-08 06:37:00,
2013-06-08 02:42:00,74.1,62.5,29.91,South,185,0.0,0.0,67,0.00,,---,0.00,VWS V14.01,2013-06-08 06:42:00,
2013-06-08 02:47:00,73.9,62.3,29.91,South,187,0.0,0.0,67,0.00,,---,0.00,VWS V14.01,2013-06-08 06:47:00,
2013-06-08 02:52:00,73.9,62.3,29.91,South,179,0.0,0.0,67,0.00,,---,0.00,VWS V14.01,2013-06-08 06:52:00,
2013-06-08 02:57:00,73.9,62.3,29.91,SSW,192,0.0,0.0,67,0.00,,---,0.00,VWS V14.01,2013-06-08 06:57:00,
2013-06-08 03:02:00,73.9,62.3,29.91,South,174,0.0,0.0,67,0.00,,---,0.00,VWS V14.01,2013-06-08 07:02:00,
2013-06-08 03:07:00,73.8,61.7,29.91,South,174,0.0,0.0,66,0.00,,---,0.00,VWS V14.01,2013-06-08 07:07:00,
2013-06-08 03:12:00,73.8,62.1,29.91,South,174,0.0,0.0,67,0.00,,---,0.00,VWS V14.01,2013-06-08 07:12:00,
2013-06-08 03:17:00,73.8,62.1,29.91,South,175,0.0,0.0,67,0.00,,---,0.00,VWS V14.01,2013-06-08 07:17:00,
2013-06-08 03:22:00,73.8,62.5,29.91,SW,216,0.0,0.0,68,0.00,,---,0.00,VWS V14.01,2013-06-08 07:22:00,
2013-06-08 03:27:00,73.8,63.0,29.91,SSE,154,0.0,0.0,69,0.00,,---,0.00,VWS V14.01,2013-06-08 07:27:00,
2013-06-08 03:32:00,73.8,63.0,29.91,South,188,0.0,0.0,69,0.00,,---,0.00,VWS V14.01,2013-06-08 07:32:00,
2013-06-08 03:37:00,73.8,63.0,29.91,SW,214,0.0,0.0,69,0.00,,---,0.00,VWS V14.01,2013-06-08 07:37:00,
2013-06-08 03:42:00,73.8,63.0,29.91,SSE,161,0.0,0.0,69,0.00,,---,0.00,VWS V14.01,2013-06-08 07:42:00,
2013-06-08 03:47:00,73.8,63.4,29.91,South,169,0.0,0.0,70,0.00,,---,0.00,VWS V14.01,2013-06-08 07:47:00,
2013-06-08 03:52:00,73.8,63.4,29.91,South,169,0.0,0.0,70,0.00,,---,0.00,VWS V14.01,2013-06-08 07:52:00,
2013-06-08 03:57:00,73.8,63.0,29.91,SSW,202,0.0,0.0,69,0.00,,---,0.00,VWS V14.01,2013-06-08 07:57:00,
2013-06-08 04:02:00,73.6,62.8,29.91,South,189,0.0,0.0,69,0.00,,---,0.00,VWS V14.01,2013-06-08 08:02:00,
2013-06-08 04:07:00,73.6,62.8,29.91,South,189,0.0,0.0,69,0.00,,---,0.00,VWS V14.01,2013-06-08 08:07:00,
2013-06-08 04:12:00,73.4,62.6,29.91,South,189,0.0,0.0,69,0.00,,---,0.00,VWS V14.01,2013-06-08 08:12:00,
2013-06-08 04:17:00,73.2,62.5,29.91,South,189,0.0,0.0,69,0.00,,---,0.00,VWS V14.01,2013-06-08 08:17:00,
2013-06-08 04:22:00,73.2,62.5,29.91,SE,135,0.0,0.0,69,0.00,,---,0.00,VWS V14.01,2013-06-08 08:22:00,
2013-06-08 04:27:00,73.2,62.9,29.91,SE,135,0.0,0.0,70,0.00,,---,0.00,VWS V14.01,2013-06-08 08:27:00,
2013-06-08 04:32:00,73.2,62.9,29.91,SE,135,0.0,0.0,70,0.00,,---,0.00,VWS V14.01,2013-06-08 08:32:00,
2013-06-08 04:37:00,73.0,62.7,29.91,SW,219,0.0,0.0,70,0.00,,---,0.00,VWS V14.01,2013-06-08 08:37:00,
2013-06-08 04:42:00,73.0,62.7,29.91,SW,219,0.0,0.0,70,0.00,,---,0.00,VWS V14.01,2013-06-08 08:42:00,
2013-06-08 04:47:00,73.0,62.7,29.91,SW,219,0.0,0.0,70,0.00,,---,0.00,VWS V14.01,2013-06-08 08:47:00,
2013-06-08 04:52:00,73.0,62.7,29.91,South,177,0.0,0.0,70,0.00,,---,0.00,VWS V14.01,2013-06-08 08:52:00,
2013-06-08 04:57:00,72.9,62.5,29.91,South,177,0.0,0.0,70,0.00,,---,0.00,VWS V14.01,2013-06-08 08:57:00,
2013-06-08 05:02:00,72.9,62.5,29.91,SW,226,0.0,0.0,70,0.00,,---,0.00,VWS V14.01,2013-06-08 09:02:00,
2013-06-08 05:07:00,72.9,62.9,29.91,SW,226,0.0,0.0,71,0.00,,---,0.00,VWS V14.01,2013-06-08 09:07:00,
2013-06-08 05:12:00,72.7,62.7,29.91,SW,226,0.0,0.0,71,0.00,,---,0.00,VWS V14.01,2013-06-08 09:12:00,
2013-06-08 05:17:00,72.7,62.7,29.91,SSW,196,0.0,0.0,71,0.00,,---,0.00,VWS V14.01,2013-06-08 09:17:00,
2013-06-08 05:22:00,72.7,63.1,29.91,South,188,0.0,0.0,72,0.00,,---,0.00,VWS V14.01,2013-06-08 09:22:00,
2013-06-08 05:27:00,72.7,63.1,29.91,South,189,0.0,0.0,72,0.00,,---,0.00,VWS V14.01,2013-06-08 09:27:00,
2013-06-08 05:32:00,72.9,64.1,29.91,South,189,0.0,0.0,74,0.00,,---,0.00,VWS V14.01,2013-06-08 09:32:00,
2013-06-08 05:37:00,72.9,64.1,29.91,SW,229,0.0,0.0,74,0.00,,---,0.00,VWS V14.01,2013-06-08 09:37:00,
2013-06-08 05:42:00,72.9,64.1,29.91,SW,229,0.0,0.0,74,0.00,,---,0.00,VWS V14.01,2013-06-08 09:42:00,
2013-06-08 05:57:00,72.9,64.5,29.91,SW,226,0.0,0.0,75,0.00,,---,0.00,VWS V14.01,2013-06-08 09:57:00,
2013-06-08 06:13:00,72.7,64.3,29.91,SSW,206,0.0,0.0,75,0.00,,---,0.00,VWS V14.01,2013-06-08 10:13:00,
2013-06-08 06:18:00,72.7,64.7,29.94,SSW,206,0.0,0.0,76,0.00,,---,0.00,VWS V14.01,2013-06-08 10:18:00,
2013-06-08 06:23:00,72.7,65.1,29.94,SSW,206,0.0,0.0,77,0.00,,---,0.00,VWS V14.01,2013-06-08 10:23:00,
2013-06-08 06:28:00,72.7,65.1,29.94,SW,215,0.0,0.0,77,0.00,,---,0.00,VWS V14.01,2013-06-08 10:28:00,
2013-06-08 06:33:00,72.7,65.1,29.94,SSW,193,0.0,0.0,77,0.00,,---,0.00,VWS V14.01,2013-06-08 10:33:00,
2013-06-08 06:38:00,72.7,65.1,29.94,SSW,207,0.0,0.0,77,0.00,,---,0.00,VWS V14.01,2013-06-08 10:38:00,
2013-06-08 06:43:00,72.9,65.6,29.94,WSW,252,0.0,0.0,78,0.00,,---,0.00,VWS V14.01,2013-06-08 10:43:00,
2013-06-08 06:48:00,72.7,65.1,29.94,WSW,252,0.0,0.0,77,0.00,,---,0.00,VWS V14.01,2013-06-08 10:48:00,
2013-06-08 06:53:00,72.9,65.2,29.94,WSW,252,0.0,0.0,77,0.00,,---,0.00,VWS V14.01,2013-06-08 10:53:00,
2013-06-08 06:58:00,72.9,65.6,29.94,WSW,252,0.0,0.0,78,0.00,,---,0.00,VWS V14.01,2013-06-08 10:58:00,
2013-06-08 07:03:00,73.0,66.5,29.94,WSW,252,0.0,0.0,80,0.00,,---,0.00,VWS V14.01,2013-06-08 11:03:00,
2013-06-08 07:08:00,73.0,66.5,29.94,ESE,120,0.0,0.0,80,0.00,,---,0.00,VWS V14.01,2013-06-08 11:08:00,
2013-06-08 07:13:00,73.0,66.2,29.94,ESE,120,0.0,0.0,79,0.00,,---,0.00,VWS V14.01,2013-06-08 11:13:00,
2013-06-08 07:18:00,73.0,66.2,29.94,ESE,120,0.0,0.0,79,0.00,,---,0.00,VWS V14.01,2013-06-08 11:18:00,
2013-06-08 07:23:00,73.2,66.3,29.94,SSW,198,0.0,0.0,79,0.00,,---,0.00,VWS V14.01,2013-06-08 11:23:00,
2013-06-08 07:28:00,73.2,66.3,29.94,SSW,198,0.0,0.0,79,0.00,,---,0.00,VWS V14.01,2013-06-08 11:28:00,
2013-06-08 07:33:00,73.4,66.5,29.97,SSW,198,0.0,0.0,79,0.00,,---,0.00,VWS V14.01,2013-06-08 11:33:00,
2013-06-08 07:38:00,73.4,66.5,29.97,South,169,0.0,0.0,79,0.00,,---,0.00,VWS V14.01,2013-06-08 11:38:00,
2013-06-08 07:43:00,73.4,66.5,29.97,SSW,197,0.0,0.0,79,0.00,,---,0.00,VWS V14.01,2013-06-08 11:43:00,
2013-06-08 07:49:00,73.4,66.5,29.97,SE,144,0.0,0.0,79,0.00,,---,0.00,VWS V14.01,2013-06-08 11:49:00,
2013-06-08 07:54:00,73.6,67.0,29.97,SW,218,0.0,0.0,80,0.00,,---,0.00,VWS V14.01,2013-06-08 11:54:00,
2013-06-08 07:59:00,73.8,67.2,29.97,South,191,0.0,0.0,80,0.00,,---,0.00,VWS V14.01,2013-06-08 11:59:00,
2013-06-08 08:04:00,73.9,67.4,29.97,SE,132,2.7,2.7,80,0.00,,---,0.00,VWS V14.01,2013-06-08 12:04:00,
2013-06-08 08:09:00,74.1,67.9,29.97,SSW,205,0.0,0.0,81,0.00,,---,0.00,VWS V14.01,2013-06-08 12:09:00,
2013-06-08 08:14:00,74.3,68.1,29.97,SSE,155,0.0,4.5,81,0.00,,---,0.00,VWS V14.01,2013-06-08 12:14:00,
2013-06-08 08:19:00,74.7,68.8,29.97,South,182,2.7,2.7,82,0.00,,---,0.00,VWS V14.01,2013-06-08 12:19:00,
2013-06-08 08:24:00,75.0,69.2,29.97,SSE,151,0.0,0.0,82,0.00,,---,0.00,VWS V14.01,2013-06-08 12:24:00,
2013-06-08 08:29:00,75.4,69.5,29.97,SSW,196,0.0,0.0,82,0.00,,---,0.00,VWS V14.01,2013-06-08 12:29:00,
2013-06-08 08:34:00,75.7,69.9,29.97,SSW,212,0.0,2.2,82,0.00,,---,0.00,VWS V14.01,2013-06-08 12:34:00,
2013-06-08 08:39:00,75.9,70.0,29.97,WSW,239,0.0,0.0,82,0.00,,---,0.00,VWS V14.01,2013-06-08 12:39:00,
2013-06-08 08:44:00,76.3,70.4,29.97,SSE,161,0.0,0.0,82,0.00,,---,0.00,VWS V14.01,2013-06-08 12:44:00,
2013-06-08 08:49:00,76.8,70.9,29.97,WSW,238,0.0,0.0,82,0.00,,---,0.00,VWS V14.01,2013-06-08 12:49:00,
2013-06-08 08:54:00,77.2,70.9,29.97,SW,217,0.0,0.0,81,0.00,,---,0.00,VWS V14.01,2013-06-08 12:54:00,
2013-06-08 08:59:00,77.4,70.7,29.97,South,187,0.0,0.0,80,0.00,,---,0.00,VWS V14.01,2013-06-08 12:59:00,
2013-06-08 09:04:00,77.5,70.9,29.97,SSE,155,2.7,2.7,80,0.00,,---,0.00,VWS V14.01,2013-06-08 13:04:00,
2013-06-08 09:09:00,77.5,70.5,29.97,SSE,165,0.0,0.0,79,0.00,,---,0.00,VWS V14.01,2013-06-08 13:09:00,
2013-06-08 09:14:00,77.7,70.7,29.97,SSW,205,2.2,2.7,79,0.00,,---,0.00,VWS V14.01,2013-06-08 13:14:00,
2013-06-08 09:19:00,77.9,70.5,29.97,SSW,195,2.7,2.7,78,0.00,,---,0.00,VWS V14.01,2013-06-08 13:19:00,
2013-06-08 09:24:00,78.1,69.9,29.97,SW,224,2.2,2.2,76,0.00,,---,0.00,VWS V14.01,2013-06-08 13:24:00,
2013-06-08 09:29:00,78.3,70.1,30.00,ESE,114,3.1,3.1,76,0.00,,---,0.00,VWS V14.01,2013-06-08 13:29:00,
2013-06-08 09:34:00,78.3,68.9,30.00,West,267,2.7,2.7,73,0.00,,---,0.00,VWS V14.01,2013-06-08 13:34:00,
2013-06-08 09:39:00,78.6,68.8,30.00,West,259,3.1,3.1,72,0.00,,---,0.00,VWS V14.01,2013-06-08 13:39:00,
2013-06-08 09:44:00,78.8,69.0,30.00,WSW,241,3.1,3.1,72,0.00,,---,0.00,VWS V14.01,2013-06-08 13:44:00,
2013-06-08 09:49:00,78.8,68.6,30.00,WSW,255,0.0,0.0,71,0.00,,---,0.00,VWS V14.01,2013-06-08 13:49:00,
2013-06-08 09:54:00,79.0,68.8,30.00,WSW,242,0.0,0.0,71,0.00,,---,0.00,VWS V14.01,2013-06-08 13:54:00,
2013-06-08 09:59:00,79.3,69.1,30.00,SW,233,0.0,0.0,71,0.00,,---,0.00,VWS V14.01,2013-06-08 13:59:00,
2013-06-08 10:04:00,79.9,69.2,30.00,South,179,3.6,3.6,70,0.00,,---,0.00,VWS V14.01,2013-06-08 14:04:00,
2013-06-08 10:09:00,80.4,69.3,30.00,ESE,119,0.0,3.1,69,0.00,,---,0.00,VWS V14.01,2013-06-08 14:09:00,
2013-06-08 10:14:00,80.8,69.7,30.00,WNW,303,2.2,3.1,69,0.00,,---,0.00,VWS V14.01,2013-06-08 14:14:00,
2013-06-08 10:19:00,81.0,68.5,30.00,SSW,201,2.2,2.7,66,0.00,,---,0.00,VWS V14.01,2013-06-08 14:19:00,
2013-06-08 10:24:00,81.0,66.7,30.00,SW,227,0.0,0.0,62,0.00,,---,0.00,VWS V14.01,2013-06-08 14:24:00,
2013-06-08 10:29:00,81.3,67.5,30.00,SSW,209,3.1,3.1,63,0.00,,---,0.00,VWS V14.01,2013-06-08 14:29:00,
2013-06-08 10:34:00,81.1,66.4,30.00,SSW,204,2.7,2.7,61,0.00,,---,0.00,VWS V14.01,2013-06-08 14:34:00,
2013-06-08 10:39:00,81.0,65.3,30.00,SW,234,3.6,3.6,59,0.00,,---,0.00,VWS V14.01,2013-06-08 14:39:00,
2013-06-08 10:44:00,81.1,65.9,30.00,WSW,241,0.0,0.0,60,0.00,,---,0.00,VWS V14.01,2013-06-08 14:44:00,
2013-06-08 10:49:00,81.3,64.1,30.00,NW,312,2.7,4.9,56,0.00,,---,0.00,VWS V14.01,2013-06-08 14:49:00,
2013-06-08 10:54:00,82.2,67.4,30.00,SSE,159,0.0,2.7,61,0.00,,---,0.00,VWS V14.01,2013-06-08 14:54:00,
2013-06-08 10:59:00,82.6,66.8,30.00,SE,137,3.6,3.6,59,0.00,,---,0.00,VWS V14.01,2013-06-08 14:59:00,
2013-06-08 11:04:00,82.6,65.8,30.00,SSW,208,2.7,3.1,57,0.00,,---,0.00,VWS V14.01,2013-06-08 15:04:00,
2013-06-08 11:09:00,82.4,64.1,30.00,SW,219,0.0,0.0,54,0.00,,---,0.00,VWS V14.01,2013-06-08 15:09:00,
2013-06-08 11:14:00,82.4,64.6,30.00,WSW,255,3.6,3.6,55,0.00,,---,0.00,VWS V14.01,2013-06-08 15:14:00,
2013-06-08 11:19:00,83.1,64.2,30.00,SW,225,2.7,2.7,53,0.00,,---,0.00,VWS V14.01,2013-06-08 15:19:00,
2013-06-08 11:24:00,83.7,64.7,30.00,South,190,3.6,4.0,53,0.00,,---,0.00,VWS V14.01,2013-06-08 15:24:00,
2013-06-08 11:29:00,84.4,63.7,30.00,South,171,3.6,4.0,50,0.00,,---,0.00,VWS V14.01,2013-06-08 15:29:00,
2013-06-08 11:34:00,85.1,64.4,30.00,SSE,152,2.7,3.6,50,0.00,,---,0.00,VWS V14.01,2013-06-08 15:34:00,
2013-06-08 11:39:00,84.9,63.7,30.00,SE,126,2.2,2.2,49,0.00,,---,0.00,VWS V14.01,2013-06-08 15:39:00,
2013-06-08 11:44:00,85.3,63.4,30.00,SW,230,3.6,3.6,48,0.00,,---,0.00,VWS V14.01,2013-06-08 15:44:00,
2013-06-08 11:49:00,84.9,63.1,30.00,SW,222,2.2,2.2,48,0.00,,---,0.00,VWS V14.01,2013-06-08 15:49:00,
2013-06-08 11:54:00,84.9,63.1,30.00,WSW,245,2.7,3.1,48,0.00,,---,0.00,VWS V14.01,2013-06-08 15:54:00,
2013-06-08 11:59:00,85.5,64.1,30.00,SSW,213,5.4,5.4,49,0.00,,---,0.00,VWS V14.01,2013-06-08 15:59:00,
2013-06-08 12:04:00,85.6,64.3,30.00,ESE,113,0.0,5.8,49,0.00,,---,0.00,VWS V14.01,2013-06-08 16:04:00,
2013-06-08 12:09:00,85.8,64.5,30.00,SW,225,0.0,0.0,49,0.00,,---,0.00,VWS V14.01,2013-06-08 16:09:00,
2013-06-08 12:14:00,86.5,64.5,30.00,South,173,2.2,2.7,48,0.00,,---,0.00,VWS V14.01,2013-06-08 16:14:00,
2013-06-08 12:19:00,87.1,63.8,30.00,SSE,154,3.6,3.6,46,0.00,,---,0.00,VWS V14.01,2013-06-08 16:19:00,
2013-06-08 12:24:00,86.9,61.1,30.00,SSW,212,2.7,3.1,42,0.00,,---,0.00,VWS V14.01,2013-06-08 16:24:00,
2013-06-08 12:29:00,86.0,58.2,30.00,SW,229,2.2,3.6,39,0.00,,---,0.00,VWS V14.01,2013-06-08 16:29:00,
2013-06-08 12:34:00,85.8,59.4,30.00,WSW,251,2.2,3.1,41,0.00,,---,0.00,VWS V14.01,2013-06-08 16:34:00,
2013-06-08 12:39:00,86.2,59.7,30.00,SSE,160,2.7,2.7,41,0.00,,---,0.00,VWS V14.01,2013-06-08 16:39:00,
2013-06-08 12:44:00,86.5,60.7,30.00,SW,226,0.0,0.0,42,0.00,,---,0.00,VWS V14.01,2013-06-08 16:44:00,
2013-06-08 12:49:00,86.7,60.9,30.00,South,185,2.7,2.7,42,0.00,,---,0.00,VWS V14.01,2013-06-08 16:49:00,
2013-06-08 12:54:00,86.9,60.4,30.00,WSW,254,2.2,3.1,41,0.00,,---,0.00,VWS V14.01,2013-06-08 16:54:00,
2013-06-08 12:59:00,86.9,59.7,30.00,WSW,237,2.7,2.7,40,0.00,,---,0.00,VWS V14.01,2013-06-08 16:59:00,
2013-06-08 13:04:00,86.7,60.2,30.00,West,277,0.0,0.0,41,0.00,,---,0.00,VWS V14.01,2013-06-08 17:04:00,
2013-06-08 13:09:00,86.5,60.1,30.00,WSW,258,0.0,0.0,41,0.00,,---,0.00,VWS V14.01,2013-06-08 17:09:00,
2013-06-08 13:14:00,86.7,60.2,30.00,West,273,4.9,4.9,41,0.00,,---,0.00,VWS V14.01,2013-06-08 17:14:00,
2013-06-08 13:19:00,86.7,59.5,30.00,NNW,334,0.0,0.0,40,0.00,,---,0.00,VWS V14.01,2013-06-08 17:19:00,
2013-06-08 13:24:00,87.1,59.8,30.00,NNE,21,0.0,2.7,40,0.00,,---,0.00,VWS V14.01,2013-06-08 17:24:00,
2013-06-08 13:29:00,87.6,61.0,30.00,NE,56,0.0,0.0,41,0.00,,---,0.00,VWS V14.01,2013-06-08 17:29:00,
2013-06-08 13:34:00,87.6,61.0,30.00,SW,218,0.0,2.7,41,0.00,,---,0.00,VWS V14.01,2013-06-08 17:34:00,
2013-06-08 13:39:00,87.8,59.8,30.00,WSW,239,2.7,2.7,39,0.00,,---,0.00,VWS V14.01,2013-06-08 17:39:00,
2013-06-08 13:44:00,88.0,60.0,29.97,NW,326,0.0,0.0,39,0.00,,---,0.00,VWS V14.01,2013-06-08 17:44:00,
2013-06-08 13:49:00,88.0,60.0,29.97,SSW,211,4.0,4.0,39,0.00,,---,0.00,VWS V14.01,2013-06-08 17:49:00,
2013-06-08 13:54:00,88.2,60.1,29.97,South,185,0.0,0.0,39,0.00,,---,0.00,VWS V14.01,2013-06-08 17:54:00,
2013-06-08 13:59:00,88.0,60.0,29.97,South,185,0.0,0.0,39,0.00,,---,0.00,VWS V14.01,2013-06-08 17:59:00,
2013-06-08 14:04:00,87.4,59.5,29.97,West,264,2.7,2.7,39,0.00,,---,0.00,VWS V14.01,2013-06-08 18:04:00,
2013-06-08 14:09:00,87.3,59.3,29.97,West,264,0.0,0.0,39,0.00,,---,0.00,VWS V14.01,2013-06-08 18:09:00,
2013-06-08 14:14:00,87.4,59.5,29.97,WNW,292,0.0,0.0,39,0.00,,---,0.00,VWS V14.01,2013-06-08 18:14:00,
2013-06-08 14:19:00,87.8,59.8,29.97,ENE,62,0.0,2.7,39,0.00,,---,0.00,VWS V14.01,2013-06-08 18:19:00,
2013-06-08 14:24:00,88.2,59.4,29.97,NE,54,0.0,0.0,38,0.00,,---,0.00,VWS V14.01,2013-06-08 18:24:00,
2013-06-08 14:29:00,88.0,60.0,29.97,NE,54,0.0,0.0,39,0.00,,---,0.00,VWS V14.01,2013-06-08 18:29:00,
2013-06-08 14:34:00,87.6,59.6,29.97,NE,54,0.0,0.0,39,0.00,,---,0.00,VWS V14.01,2013-06-08 18:34:00,
2013-06-08 14:39:00,87.4,59.5,29.97,North,9,0.0,0.0,39,0.00,,---,0.00,VWS V14.01,2013-06-08 18:39:00,
2013-06-08 14:44:00,87.3,59.3,29.97,NNW,343,0.0,0.0,39,0.00,,---,0.00,VWS V14.01,2013-06-08 18:44:00,
2013-06-08 14:49:00,87.8,59.8,29.97,WSW,244,3.1,3.1,39,0.00,,---,0.00,VWS V14.01,2013-06-08 18:49:00,
2013-06-08 14:54:00,88.7,60.6,29.97,ENE,73,0.0,0.0,39,0.00,,---,0.00,VWS V14.01,2013-06-08 18:54:00,
2013-06-08 14:59:00,88.7,59.9,29.94,NW,322,2.7,2.7,38,0.00,,---,0.00,VWS V14.01,2013-06-08 18:59:00,
2013-06-08 15:04:00,88.7,59.9,29.94,WSW,241,2.2,2.2,38,0.00,,---,0.00,VWS V14.01,2013-06-08 19:04:00,
2013-06-08 15:09:00,88.5,59.7,29.94,NE,34,0.0,0.0,38,0.00,,---,0.00,VWS V14.01,2013-06-08 19:09:00,
2013-06-08 15:14:00,88.3,59.5,29.94,NNW,327,0.0,0.0,38,0.00,,---,0.00,VWS V14.01,2013-06-08 19:14:00,
2013-06-08 15:19:00,88.2,59.4,29.94,NNW,327,0.0,0.0,38,0.00,,---,0.00,VWS V14.01,2013-06-08 19:19:00,
2013-06-08 15:24:00,88.0,59.2,29.94,NNW,327,0.0,0.0,38,0.00,,---,0.00,VWS V14.01,2013-06-08 19:24:00,
2013-06-08 15:29:00,87.6,59.6,29.94,NNW,327,0.0,0.0,39,0.00,,---,0.00,VWS V14.01,2013-06-08 19:29:00,
2013-06-08 15:34:00,87.3,59.3,29.94,NNW,327,0.0,0.0,39,0.00,,---,0.00,VWS V14.01,2013-06-08 19:34:00,
2013-06-08 15:39:00,87.1,59.2,29.94,North,357,3.1,3.1,39,0.00,,---,0.00,VWS V14.01,2013-06-08 19:39:00,
2013-06-08 15:45:00,87.1,59.2,29.94,North,3,0.0,0.0,39,0.00,,---,0.00,VWS V14.01,2013-06-08 19:45:00,
2013-06-08 15:50:00,87.1,59.2,29.94,North,3,0.0,0.0,39,0.00,,---,0.00,VWS V14.01,2013-06-08 19:50:00,
2013-06-08 15:55:00,87.8,59.8,29.94,NNE,19,0.0,0.0,39,0.00,,---,0.00,VWS V14.01,2013-06-08 19:55:00,
2013-06-08 16:00:00,87.8,59.1,29.94,NNE,19,0.0,0.0,38,0.00,,---,0.00,VWS V14.01,2013-06-08 20:00:00,
2013-06-08 16:05:00,87.8,59.8,29.94,NNE,19,0.0,0.0,39,0.00,,---,0.00,VWS V14.01,2013-06-08 20:05:00,
2013-06-08 16:10:00,87.8,59.8,29.94,NNE,19,0.0,0.0,39,0.00,,---,0.00,VWS V14.01,2013-06-08 20:10:00,
2013-06-08 16:15:00,88.3,59.5,29.94,West,280,3.1,3.1,38,0.00,,---,0.00,VWS V14.01,2013-06-08 20:15:00,
2013-06-08 16:20:00,88.9,60.0,29.94,NE,48,0.0,0.0,38,0.00,,---,0.00,VWS V14.01,2013-06-08 20:20:00,
2013-06-08 16:25:00,89.2,60.3,29.94,NE,48,0.0,0.0,38,0.00,,---,0.00,VWS V14.01,2013-06-08 20:25:00,
2013-06-08 16:30:00,89.6,60.7,29.97,NNW,345,0.0,0.0,38,0.00,,---,0.00,VWS V14.01,2013-06-08 20:30:00,
2013-06-08 16:35:00,90.1,61.1,29.97,SSW,201,0.0,0.0,38,0.00,,---,0.00,VWS V14.01,2013-06-08 20:35:00,
2013-06-08 16:39:00,90.5,61.5,29.97,WSW,243,0.0,0.0,38,0.00,,---,0.00,VWS V14.01,2013-06-08 20:39:00,
2013-06-08 16:44:00,90.5,61.5,29.97,NE,49,0.0,0.0,38,0.00,,---,0.00,VWS V14.01,2013-06-08 20:44:00,
2013-06-08 16:49:00,90.3,61.3,29.97,NNW,329,0.0,0.0,38,0.00,,---,0.00,VWS V14.01,2013-06-08 20:49:00,
2013-06-08 16:55:00,89.8,60.8,29.97,North,4,0.0,0.0,38,0.00,,---,0.00,VWS V14.01,2013-06-08 20:55:00,
2013-06-08 17:00:00,89.4,60.5,29.97,North,4,0.0,0.0,38,0.00,,---,0.00,VWS V14.01,2013-06-08 21:00:00,
2013-06-08 17:05:00,89.1,60.2,29.97,North,2,0.0,0.0,38,0.00,,---,0.00,VWS V14.01,2013-06-08 21:05:00,
2013-06-08 17:10:00,88.7,59.9,29.97,North,4,0.0,0.0,38,0.00,,---,0.00,VWS V14.01,2013-06-08 21:10:00,
2013-06-08 17:15:00,88.5,59.7,29.97,North,4,0.0,0.0,38,0.00,,---,0.00,VWS V14.01,2013-06-08 21:15:00,
2013-06-08 17:20:00,88.2,59.4,29.97,North,4,0.0,0.0,38,0.00,,---,0.00,VWS V14.01,2013-06-08 21:20:00,
2013-06-08 17:25:00,87.8,59.1,29.97,ENE,75,0.0,0.0,38,0.00,,---,0.00,VWS V14.01,2013-06-08 21:25:00,
2013-06-08 17:30:00,87.6,59.6,29.97,ENE,75,0.0,0.0,39,0.00,,---,0.00,VWS V14.01,2013-06-08 21:30:00,
2013-06-08 17:35:00,87.4,59.5,29.97,ENE,75,0.0,0.0,39,0.00,,---,0.00,VWS V14.01,2013-06-08 21:35:00,
2013-06-08 17:40:00,87.3,59.3,29.97,ENE,75,0.0,0.0,39,0.00,,---,0.00,VWS V14.01,2013-06-08 21:40:00,
2013-06-08 17:45:00,87.1,59.2,29.97,ESE,120,2.2,2.2,39,0.00,,---,0.00,VWS V14.01,2013-06-08 21:45:00,
2013-06-08 17:50:00,86.9,59.0,29.97,East,87,0.0,0.0,39,0.00,,---,0.00,VWS V14.01,2013-06-08 21:50:00,
2013-06-08 17:55:00,86.5,58.7,29.97,SE,135,0.0,0.0,39,0.00,,---,0.00,VWS V14.01,2013-06-08 21:55:00,
2013-06-08 18:00:00,86.2,58.3,29.97,SW,231,0.0,0.0,39,0.00,,---,0.00,VWS V14.01,2013-06-08 22:00:00,
2013-06-08 18:05:00,85.8,58.0,29.97,SW,231,0.0,0.0,39,0.00,,---,0.00,VWS V14.01,2013-06-08 22:05:00,
2013-06-08 18:10:00,85.5,57.7,29.97,SW,231,0.0,0.0,39,0.00,,---,0.00,VWS V14.01,2013-06-08 22:10:00,
2013-06-08 18:15:00,84.9,57.9,29.97,SW,231,0.0,0.0,40,0.00,,---,0.00,VWS V14.01,2013-06-08 22:15:00,
2013-06-08 18:20:00,84.6,57.6,29.97,SSE,158,4.0,4.0,40,0.00,,---,0.00,VWS V14.01,2013-06-08 22:20:00,
2013-06-08 18:25:00,83.7,57.5,29.97,ENE,65,3.6,3.6,41,0.04,,---,0.04,VWS V14.01,2013-06-08 22:25:00,
2013-06-08 18:30:00,81.7,57.0,30.00,SSW,206,0.0,0.0,43,0.12,,---,0.12,VWS V14.01,2013-06-08 22:30:00,
2013-06-08 18:35:00,79.7,55.2,30.00,SSW,206,0.0,0.0,43,0.16,,---,0.16,VWS V14.01,2013-06-08 22:35:00,
2013-06-08 18:40:00,78.3,54.6,30.00,SE,136,2.7,4.0,44,0.20,,---,0.20,VWS V14.01,2013-06-08 22:40:00,
2013-06-08 18:45:00,77.5,58.0,30.03,SW,232,2.2,5.8,51,0.24,,---,0.24,VWS V14.01,2013-06-08 22:45:00,
2013-06-08 18:50:00,77.7,66.3,30.03,SE,132,3.1,5.8,68,0.31,,---,0.31,VWS V14.01,2013-06-08 22:50:00,
2013-06-08 18:55:00,76.8,63.7,30.03,NE,50,2.7,3.6,64,0.35,,---,0.35,VWS V14.01,2013-06-08 22:55:00,
2013-06-08 19:00:00,76.5,62.9,30.03,ENE,70,4.9,4.9,63,0.35,,---,0.35,VWS V14.01,2013-06-08 23:00:00,
2013-06-08 19:05:00,75.9,61.0,30.03,SSW,210,0.0,2.2,60,0.35,,---,0.35,VWS V14.01,2013-06-08 23:05:00,
2013-06-08 19:10:00,75.7,59.9,30.03,SSE,163,4.0,4.9,58,0.35,,---,0.35,VWS V14.01,2013-06-08 23:10:00,
2013-06-08 19:15:00,75.7,61.3,30.03,SSW,203,3.1,3.1,61,0.35,,---,0.35,VWS V14.01,2013-06-08 23:15:00,
2013-06-08 19:19:00,75.4,61.5,30.03,SSW,209,4.0,4.0,62,0.39,,---,0.39,VWS V14.01,2013-06-08 23:19:00,
2013-06-08 19:25:00,75.0,60.7,30.03,South,169,3.6,3.6,61,0.39,,---,0.39,VWS V14.01,2013-06-08 23:25:00,
2013-06-08 19:30:00,74.7,60.3,30.03,ESE,119,0.0,4.0,61,0.28,,---,0.39,VWS V14.01,2013-06-08 23:30:00,
2013-06-08 19:35:00,74.5,62.0,30.03,WSW,242,0.0,3.1,65,0.24,,---,0.39,VWS V14.01,2013-06-08 23:35:00,
2013-06-08 19:40:00,74.1,61.6,30.03,SE,141,0.0,0.0,65,0.20,,---,0.39,VWS V14.01,2013-06-08 23:40:00,
2013-06-08 19:45:00,73.8,60.4,30.03,East,90,0.0,0.0,63,0.16,,---,0.39,VWS V14.01,2013-06-08 23:45:00,
2013-06-08 19:50:00,73.6,59.8,30.03,SSE,164,3.1,3.1,62,0.08,,---,0.39,VWS V14.01,2013-06-08 23:50:00,
2013-06-08 19:55:00,73.4,60.5,30.03,ESE,108,0.0,0.0,64,0.04,,---,0.39,VWS V14.01,2013-06-08 23:55:00,
2013-06-08 20:00:00,73.0,60.6,30.03,SSE,159,0.0,0.0,65,0.04,,---,0.39,VWS V14.01,2013-06-09 00:00:00,
2013-06-08 20:05:00,72.7,59.4,30.03,SSE,147,0.0,0.0,63,0.04,,---,0.39,VWS V14.01,2013-06-09 00:05:00,
2013-06-08 20:10:00,72.7,59.8,30.03,SSE,147,0.0,0.0,64,0.08,,---,0.43,VWS V14.01,2013-06-09 00:10:00,
2013-06-08 20:15:00,72.5,59.6,30.03,SSE,147,0.0,0.0,64,0.08,,---,0.43,VWS V14.01,2013-06-09 00:15:00,
2013-06-08 20:20:00,72.3,59.5,30.03,SSE,147,0.0,0.0,64,0.04,,---,0.43,VWS V14.01,2013-06-09 00:20:00,
2013-06-08 20:25:00,72.3,59.0,30.03,SSE,147,0.0,0.0,63,0.04,,---,0.43,VWS V14.01,2013-06-09 00:25:00,
2013-06-08 20:30:00,72.5,60.1,30.03,SSE,147,0.0,0.0,65,0.04,,---,0.43,VWS V14.01,2013-06-09 00:30:00,
2013-06-08 20:35:00,72.5,60.9,30.03,SSE,147,0.0,0.0,67,0.04,,---,0.43,VWS V14.01,2013-06-09 00:35:00,
2013-06-08 20:40:00,72.5,60.9,30.03,South,181,0.0,0.0,67,0.04,,---,0.43,VWS V14.01,2013-06-09 00:40:00,
2013-06-08 20:45:00,72.7,62.3,30.03,WSW,255,2.2,2.7,70,0.04,,---,0.43,VWS V14.01,2013-06-09 00:45:00,
2013-06-08 20:50:00,72.9,62.9,30.03,West,262,0.0,0.0,71,0.04,,---,0.43,VWS V14.01,2013-06-09 00:50:00,
2013-06-08 20:55:00,72.7,61.9,30.03,West,263,0.0,0.0,69,0.04,,---,0.43,VWS V14.01,2013-06-09 00:55:00,
2013-06-08 21:00:00,72.7,61.9,30.03,West,263,0.0,0.0,69,0.04,,---,0.00,VWS V14.01,2013-06-09 01:00:00,
2013-06-08 21:05:00,72.7,61.5,30.03,West,263,0.0,0.0,68,0.04,,---,0.43,VWS V14.01,2013-06-09 01:05:00,
2013-06-08 21:10:00,72.7,61.5,30.03,West,262,0.0,0.0,68,0.00,,---,0.43,VWS V14.01,2013-06-09 01:10:00,
2013-06-08 21:15:00,72.7,61.5,30.03,West,262,0.0,0.0,68,0.00,,---,0.43,VWS V14.01,2013-06-09 01:15:00,
2013-06-08 21:20:00,72.7,61.5,30.03,SE,127,0.0,0.0,68,0.00,,---,0.43,VWS V14.01,2013-06-09 01:20:00,
2013-06-08 21:25:00,72.7,61.5,30.03,SE,127,0.0,0.0,68,0.00,,---,0.43,VWS V14.01,2013-06-09 01:25:00,
2013-06-08 21:30:00,72.9,62.5,30.03,SSW,207,0.0,0.0,70,0.00,,---,0.43,VWS V14.01,2013-06-09 01:30:00,
2013-06-08 21:35:00,72.7,61.9,30.03,SSE,154,0.0,0.0,69,0.00,,---,0.43,VWS V14.01,2013-06-09 01:35:00,
2013-06-08 21:40:00,72.7,61.9,30.03,SSE,152,0.0,0.0,69,0.00,,---,0.43,VWS V14.01,2013-06-09 01:40:00,
2013-06-08 21:45:00,72.7,61.9,30.03,SSE,152,0.0,0.0,69,0.00,,---,0.43,VWS V14.01,2013-06-09 01:45:00,
2013-06-08 21:50:00,72.7,61.9,30.03,SSE,152,0.0,0.0,69,0.00,,---,0.43,VWS V14.01,2013-06-09 01:50:00,
2013-06-08 21:55:00,72.7,61.9,30.03,SSE,152,0.0,0.0,69,0.00,,---,0.43,VWS V14.01,2013-06-09 01:55:00,
2013-06-08 22:00:00,72.7,61.9,30.03,SSE,153,0.0,0.0,69,0.00,,---,0.43,VWS V14.01,2013-06-09 02:00:00,
2013-06-08 22:05:00,72.7,62.3,30.03,West,260,0.0,0.0,70,0.00,,---,0.43,VWS V14.01,2013-06-09 02:05:00,
2013-06-08 22:10:00,72.7,63.1,30.03,West,260,0.0,0.0,72,0.00,,---,0.43,VWS V14.01,2013-06-09 02:10:00,
2013-06-08 22:15:00,72.9,65.2,30.03,West,260,0.0,0.0,77,0.00,,---,0.43,VWS V14.01,2013-06-09 02:15:00,
2013-06-08 22:20:00,72.7,64.3,30.03,West,260,0.0,0.0,75,0.00,,---,0.43,VWS V14.01,2013-06-09 02:20:00,
2013-06-08 22:25:00,72.7,64.3,30.03,West,264,0.0,0.0,75,0.00,,---,0.43,VWS V14.01,2013-06-09 02:25:00,
2013-06-08 22:30:00,72.5,63.8,30.03,West,264,0.0,0.0,74,0.00,,---,0.43,VWS V14.01,2013-06-09 02:30:00,
2013-06-08 22:35:00,72.5,63.4,30.03,West,264,0.0,0.0,73,0.00,,---,0.43,VWS V14.01,2013-06-09 02:35:00,
2013-06-08 22:40:00,72.3,63.2,30.03,West,264,0.0,0.0,73,0.00,,---,0.43,VWS V14.01,2013-06-09 02:40:00,
2013-06-08 22:45:00,72.3,62.8,30.03,West,264,0.0,0.0,72,0.00,,---,0.43,VWS V14.01,2013-06-09 02:45:00,
2013-06-08 22:50:00,72.3,62.8,30.03,West,264,0.0,0.0,72,0.00,,---,0.43,VWS V14.01,2013-06-09 02:50:00,
2013-06-08 22:55:00,72.3,62.8,30.03,West,264,0.0,0.0,72,0.00,,---,0.43,VWS V14.01,2013-06-09 02:55:00,
2013-06-08 23:00:00,72.1,62.6,30.03,West,264,0.0,0.0,72,0.00,,---,0.43,VWS V14.01,2013-06-09 03:00:00,
2013-06-08 23:05:00,72.1,62.6,30.03,West,264,0.0,0.0,72,0.00,,---,0.43,VWS V14.01,2013-06-09 03:05:00,
2013-06-08 23:10:00,72.1,62.6,30.03,West,264,0.0,0.0,72,0.00,,---,0.43,VWS V14.01,2013-06-09 03:10:00,
2013-06-08 23:16:00,72.0,62.5,30.03,West,264,0.0,0.0,72,0.00,,---,0.43,VWS V14.01,2013-06-09 03:16:00,
2013-06-08 23:21:00,72.0,62.5,30.03,West,264,0.0,0.0,72,0.00,,---,0.43,VWS V14.01,2013-06-09 03:21:00,
2013-06-08 23:26:00,72.0,62.8,30.03,West,264,0.0,0.0,73,0.00,,---,0.43,VWS V14.01,2013-06-09 03:26:00,
2013-06-08 23:30:00,71.8,62.7,30.03,West,264,0.0,0.0,73,0.00,,---,0.43,VWS V14.01,2013-06-09 03:30:00,
2013-06-08 23:36:00,71.8,62.7,30.03,West,264,0.0,0.0,73,0.00,,---,0.43,VWS V14.01,2013-06-09 03:36:00,
2013-06-08 23:41:00,71.6,62.5,30.03,West,264,0.0,0.0,73,0.00,,---,0.43,VWS V14.01,2013-06-09 03:41:00,
2013-06-08 23:46:00,71.6,62.5,30.03,West,264,0.0,0.0,73,0.00,,---,0.43,VWS V14.01,2013-06-09 03:46:00,
2013-06-08 23:51:00,71.6,62.5,30.03,West,264,0.0,0.0,73,0.00,,---,0.43,VWS V14.01,2013-06-09 03:51:00,
2013-06-08 23:56:00,71.6,62.9,30.03,West,264,0.0,0.0,74,0.00,,---,0.43,VWS V14.01,2013-06-09 03:56:00,